sensor_id;sensor_type;location;lat;lon;timestamp;temperature;humidity
34145;HTU21D;69555;53.014;8.886;2023-06-26T00:00:17;21.74;76.06
34145;HTU21D;69555;53.014;8.886;2023-06-26T00:02:42;21.68;76.47
34145;HTU21D;69555;53.014;8.886;2023-06-26T00:05:08;21.62;76.67
34145;HTU21D;69555;53.014;8.886;2023-06-26T00:07:33;21.59;76.77
34145;HTU21D;69555;53.014;8.886;2023-06-26T00:09:59;21.58;76.70
34145;HTU21D;69555;53.014;8.886;2023-06-26T00:12:25;21.48;77.07
34145;HTU21D;69555;53.014;8.886;2023-06-26T00:14:51;21.46;77.18
34145;HTU21D;69555;53.014;8.886;2023-06-26T00:17:17;21.49;77.13
34145;HTU21D;69555;53.014;8.886;2023-06-26T00:19:43;21.46;77.47
34145;HTU21D;69555;53.014;8.886;2023-06-26T00:22:08;21.40;77.98
34145;HTU21D;69555;53.014;8.886;2023-06-26T00:24:33;21.43;77.97
34145;HTU21D;69555;53.014;8.886;2023-06-26T00:26:59;21.45;77.58
34145;HTU21D;69555;53.014;8.886;2023-06-26T00:29:24;21.42;77.79
34145;HTU21D;69555;53.014;8.886;2023-06-26T00:31:49;21.37;78.00
34145;HTU21D;69555;53.014;8.886;2023-06-26T00:34:15;21.38;77.96
34145;HTU21D;69555;53.014;8.886;2023-06-26T00:36:41;21.46;77.69
34145;HTU21D;69555;53.014;8.886;2023-06-26T00:39:09;21.47;77.75
34145;HTU21D;69555;53.014;8.886;2023-06-26T00:41:36;21.33;78.56
34145;HTU21D;69555;53.014;8.886;2023-06-26T00:44:01;21.36;78.48
34145;HTU21D;69555;53.014;8.886;2023-06-26T00:46:26;21.31;78.69
34145;HTU21D;69555;53.014;8.886;2023-06-26T00:48:52;21.27;78.79
34145;HTU21D;69555;53.014;8.886;2023-06-26T00:51:19;21.21;78.89
34145;HTU21D;69555;53.014;8.886;2023-06-26T00:53:45;21.20;78.80
34145;HTU21D;69555;53.014;8.886;2023-06-26T00:56:11;21.16;79.02
34145;HTU21D;69555;53.014;8.886;2023-06-26T00:58:36;21.23;78.56
34145;HTU21D;69555;53.014;8.886;2023-06-26T01:01:02;21.11;79.13
34145;HTU21D;69555;53.014;8.886;2023-06-26T01:03:28;21.13;79.18
34145;HTU21D;69555;53.014;8.886;2023-06-26T01:05:55;21.02;79.73
34145;HTU21D;69555;53.014;8.886;2023-06-26T01:08:21;21.06;79.59
34145;HTU21D;69555;53.014;8.886;2023-06-26T01:10:47;21.04;79.66
34145;HTU21D;69555;53.014;8.886;2023-06-26T01:13:16;20.94;80.14
34145;HTU21D;69555;53.014;8.886;2023-06-26T01:15:41;20.95;80.10
34145;HTU21D;69555;53.014;8.886;2023-06-26T01:18:08;20.93;80.22
34145;HTU21D;69555;53.014;8.886;2023-06-26T01:20:38;20.90;80.60
34145;HTU21D;69555;53.014;8.886;2023-06-26T01:23:20;20.88;80.63
34145;HTU21D;69555;53.014;8.886;2023-06-26T01:26:16;20.83;80.61
34145;HTU21D;69555;53.014;8.886;2023-06-26T01:28:43;20.76;80.47
34145;HTU21D;69555;53.014;8.886;2023-06-26T01:31:10;20.72;80.41
34145;HTU21D;69555;53.014;8.886;2023-06-26T01:33:36;20.65;80.70
34145;HTU21D;69555;53.014;8.886;2023-06-26T01:36:03;20.64;80.75
34145;HTU21D;69555;53.014;8.886;2023-06-26T01:38:28;20.53;81.17
34145;HTU21D;69555;53.014;8.886;2023-06-26T01:40:54;20.58;81.11
34145;HTU21D;69555;53.014;8.886;2023-06-26T01:43:57;20.48;81.45
34145;HTU21D;69555;53.014;8.886;2023-06-26T01:46:57;20.41;81.73
34145;HTU21D;69555;53.014;8.886;2023-06-26T01:49:43;20.35;82.00
34145;HTU21D;69555;53.014;8.886;2023-06-26T01:52:30;20.31;82.07
34145;HTU21D;69555;53.014;8.886;2023-06-26T01:55:03;20.28;82.31
34145;HTU21D;69555;53.014;8.886;2023-06-26T01:57:31;20.18;82.64
34145;HTU21D;69555;53.014;8.886;2023-06-26T01:59:57;20.21;82.50
34145;HTU21D;69555;53.014;8.886;2023-06-26T02:02:24;20.24;82.23
34145;HTU21D;69555;53.014;8.886;2023-06-26T02:04:50;20.19;82.38
34145;HTU21D;69555;53.014;8.886;2023-06-26T02:07:16;20.18;82.52
34145;HTU21D;69555;53.014;8.886;2023-06-26T02:09:41;20.18;82.59
34145;HTU21D;69555;53.014;8.886;2023-06-26T02:12:07;20.17;82.66
34145;HTU21D;69555;53.014;8.886;2023-06-26T02:14:32;20.20;82.62
34145;HTU21D;69555;53.014;8.886;2023-06-26T02:16:58;20.11;82.85
34145;HTU21D;69555;53.014;8.886;2023-06-26T02:19:25;20.11;83.08
34145;HTU21D;69555;53.014;8.886;2023-06-26T02:21:55;20.19;82.41
34145;HTU21D;69555;53.014;8.886;2023-06-26T02:24:21;20.18;82.18
34145;HTU21D;69555;53.014;8.886;2023-06-26T02:26:46;20.12;82.45
34145;HTU21D;69555;53.014;8.886;2023-06-26T02:29:12;20.09;82.76
34145;HTU21D;69555;53.014;8.886;2023-06-26T02:31:37;20.05;82.97
34145;HTU21D;69555;53.014;8.886;2023-06-26T02:34:03;20.05;83.00
34145;HTU21D;69555;53.014;8.886;2023-06-26T02:36:29;20.05;83.16
34145;HTU21D;69555;53.014;8.886;2023-06-26T02:38:54;19.99;83.52
34145;HTU21D;69555;53.014;8.886;2023-06-26T02:41:19;19.96;83.57
34145;HTU21D;69555;53.014;8.886;2023-06-26T02:43:45;19.95;83.61
34145;HTU21D;69555;53.014;8.886;2023-06-26T02:46:10;19.91;83.44
34145;HTU21D;69555;53.014;8.886;2023-06-26T02:48:35;19.89;83.68
34145;HTU21D;69555;53.014;8.886;2023-06-26T02:51:01;19.88;83.52
34145;HTU21D;69555;53.014;8.886;2023-06-26T02:53:26;19.84;83.51
34145;HTU21D;69555;53.014;8.886;2023-06-26T02:55:52;19.79;83.68
34145;HTU21D;69555;53.014;8.886;2023-06-26T02:58:17;19.77;83.67
34145;HTU21D;69555;53.014;8.886;2023-06-26T03:00:42;19.72;83.93
34145;HTU21D;69555;53.014;8.886;2023-06-26T03:03:08;19.66;84.42
34145;HTU21D;69555;53.014;8.886;2023-06-26T03:05:34;19.73;84.10
34145;HTU21D;69555;53.014;8.886;2023-06-26T03:07:59;19.71;84.06
34145;HTU21D;69555;53.014;8.886;2023-06-26T03:10:25;19.69;84.23
34145;HTU21D;69555;53.014;8.886;2023-06-26T03:12:50;19.69;84.16
34145;HTU21D;69555;53.014;8.886;2023-06-26T03:15:15;19.58;84.40
34145;HTU21D;69555;53.014;8.886;2023-06-26T03:17:41;19.57;84.61
34145;HTU21D;69555;53.014;8.886;2023-06-26T03:20:07;19.55;84.67
34145;HTU21D;69555;53.014;8.886;2023-06-26T03:22:33;19.56;84.76
34145;HTU21D;69555;53.014;8.886;2023-06-26T03:24:59;19.58;84.58
34145;HTU21D;69555;53.014;8.886;2023-06-26T03:27:24;19.57;84.70
34145;HTU21D;69555;53.014;8.886;2023-06-26T03:29:52;19.61;84.41
34145;HTU21D;69555;53.014;8.886;2023-06-26T03:32:17;19.58;84.77
34145;HTU21D;69555;53.014;8.886;2023-06-26T03:34:43;19.60;84.44
34145;HTU21D;69555;53.014;8.886;2023-06-26T03:37:09;19.65;84.49
34145;HTU21D;69555;53.014;8.886;2023-06-26T03:39:34;19.62;84.56
34145;HTU21D;69555;53.014;8.886;2023-06-26T03:41:59;19.67;84.52
34145;HTU21D;69555;53.014;8.886;2023-06-26T03:44:26;19.73;84.14
34145;HTU21D;69555;53.014;8.886;2023-06-26T03:46:52;19.72;84.25
34145;HTU21D;69555;53.014;8.886;2023-06-26T03:49:17;19.68;84.21
34145;HTU21D;69555;53.014;8.886;2023-06-26T03:51:44;19.70;84.10
34145;HTU21D;69555;53.014;8.886;2023-06-26T03:54:09;19.69;84.28
34145;HTU21D;69555;53.014;8.886;2023-06-26T03:56:35;19.77;84.05
34145;HTU21D;69555;53.014;8.886;2023-06-26T03:59:00;19.79;83.67
34145;HTU21D;69555;53.014;8.886;2023-06-26T04:01:26;19.83;83.51
34145;HTU21D;69555;53.014;8.886;2023-06-26T04:03:51;19.84;83.73
34145;HTU21D;69555;53.014;8.886;2023-06-26T04:06:17;19.88;83.28
34145;HTU21D;69555;53.014;8.886;2023-06-26T04:08:42;19.89;83.32
34145;HTU21D;69555;53.014;8.886;2023-06-26T04:11:08;19.90;83.29
34145;HTU21D;69555;53.014;8.886;2023-06-26T04:13:33;19.97;83.11
34145;HTU21D;69555;53.014;8.886;2023-06-26T04:15:58;20.02;82.63
34145;HTU21D;69555;53.014;8.886;2023-06-26T04:18:24;20.16;82.20
34145;HTU21D;69555;53.014;8.886;2023-06-26T04:21:09;20.27;81.58
34145;HTU21D;69555;53.014;8.886;2023-06-26T04:23:36;20.29;81.48
34145;HTU21D;69555;53.014;8.886;2023-06-26T04:26:01;20.37;81.38
34145;HTU21D;69555;53.014;8.886;2023-06-26T04:28:28;20.71;80.50
34145;HTU21D;69555;53.014;8.886;2023-06-26T04:30:54;20.77;80.20
34145;HTU21D;69555;53.014;8.886;2023-06-26T04:33:19;21.05;79.01
34145;HTU21D;69555;53.014;8.886;2023-06-26T04:35:44;21.16;78.38
34145;HTU21D;69555;53.014;8.886;2023-06-26T04:38:14;21.65;77.06
34145;HTU21D;69555;53.014;8.886;2023-06-26T04:40:40;22.58;72.90
34145;HTU21D;69555;53.014;8.886;2023-06-26T04:43:06;23.36;69.88
34145;HTU21D;69555;53.014;8.886;2023-06-26T04:45:31;24.29;66.57
34145;HTU21D;69555;53.014;8.886;2023-06-26T04:47:57;25.03;63.87
34145;HTU21D;69555;53.014;8.886;2023-06-26T04:50:23;25.77;61.31
34145;HTU21D;69555;53.014;8.886;2023-06-26T04:52:48;26.19;60.14
34145;HTU21D;69555;53.014;8.886;2023-06-26T04:55:13;27.19;56.89
34145;HTU21D;69555;53.014;8.886;2023-06-26T04:57:39;27.54;56.36
34145;HTU21D;69555;53.014;8.886;2023-06-26T05:00:05;28.62;52.79
34145;HTU21D;69555;53.014;8.886;2023-06-26T05:02:35;29.92;49.49
34145;HTU21D;69555;53.014;8.886;2023-06-26T05:05:00;30.21;48.81
34145;HTU21D;69555;53.014;8.886;2023-06-26T05:07:26;30.89;47.09
34145;HTU21D;69555;53.014;8.886;2023-06-26T05:09:51;31.57;44.99
34145;HTU21D;69555;53.014;8.886;2023-06-26T05:12:16;31.12;46.43
34145;HTU21D;69555;53.014;8.886;2023-06-26T05:14:42;30.51;48.41
34145;HTU21D;69555;53.014;8.886;2023-06-26T05:17:07;31.06;46.54
34145;HTU21D;69555;53.014;8.886;2023-06-26T05:19:33;29.78;50.35
34145;HTU21D;69555;53.014;8.886;2023-06-26T05:21:58;28.82;52.56
34145;HTU21D;69555;53.014;8.886;2023-06-26T05:24:26;29.27;51.25
34145;HTU21D;69555;53.014;8.886;2023-06-26T05:26:52;29.20;51.99
34145;HTU21D;69555;53.014;8.886;2023-06-26T05:29:18;30.13;49.43
34145;HTU21D;69555;53.014;8.886;2023-06-26T05:31:44;30.76;48.08
34145;HTU21D;69555;53.014;8.886;2023-06-26T05:34:11;31.12;46.74
34145;HTU21D;69555;53.014;8.886;2023-06-26T05:36:38;32.08;44.24
34145;HTU21D;69555;53.014;8.886;2023-06-26T05:39:04;31.22;46.15
34145;HTU21D;69555;53.014;8.886;2023-06-26T05:41:29;32.40;42.05
34145;HTU21D;69555;53.014;8.886;2023-06-26T05:43:55;32.69;41.69
34145;HTU21D;69555;53.014;8.886;2023-06-26T05:46:20;30.97;46.17
34145;HTU21D;69555;53.014;8.886;2023-06-26T05:48:45;33.13;41.49
34145;HTU21D;69555;53.014;8.886;2023-06-26T05:51:12;32.63;41.88
34145;HTU21D;69555;53.014;8.886;2023-06-26T05:53:38;33.28;40.28
34145;HTU21D;69555;53.014;8.886;2023-06-26T05:56:04;34.66;37.48
34145;HTU21D;69555;53.014;8.886;2023-06-26T05:58:30;34.51;37.09
34145;HTU21D;69555;53.014;8.886;2023-06-26T06:00:55;35.57;34.73
34145;HTU21D;69555;53.014;8.886;2023-06-26T06:03:21;36.21;34.73
34145;HTU21D;69555;53.014;8.886;2023-06-26T06:05:46;37.33;31.64
34145;HTU21D;69555;53.014;8.886;2023-06-26T06:08:12;37.12;32.04
34145;HTU21D;69555;53.014;8.886;2023-06-26T06:10:37;36.83;33.31
34145;HTU21D;69555;53.014;8.886;2023-06-26T06:13:03;36.46;33.94
34145;HTU21D;69555;53.014;8.886;2023-06-26T06:15:28;38.82;30.20
34145;HTU21D;69555;53.014;8.886;2023-06-26T06:17:53;38.01;31.38
34145;HTU21D;69555;53.014;8.886;2023-06-26T06:20:19;39.61;28.28
34145;HTU21D;69555;53.014;8.886;2023-06-26T06:22:45;37.54;31.28
34145;HTU21D;69555;53.014;8.886;2023-06-26T06:25:10;36.19;33.90
34145;HTU21D;69555;53.014;8.886;2023-06-26T06:27:36;35.70;33.17
34145;HTU21D;69555;53.014;8.886;2023-06-26T06:30:01;33.82;37.24
34145;HTU21D;69555;53.014;8.886;2023-06-26T06:32:27;34.40;34.88
34145;HTU21D;69555;53.014;8.886;2023-06-26T06:34:53;33.79;37.71
34145;HTU21D;69555;53.014;8.886;2023-06-26T06:37:18;33.49;37.96
34145;HTU21D;69555;53.014;8.886;2023-06-26T06:39:44;37.15;31.05
34145;HTU21D;69555;53.014;8.886;2023-06-26T06:42:09;34.48;36.44
34145;HTU21D;69555;53.014;8.886;2023-06-26T06:44:34;35.45;34.79
34145;HTU21D;69555;53.014;8.886;2023-06-26T06:47:00;34.46;35.87
34145;HTU21D;69555;53.014;8.886;2023-06-26T06:49:25;36.14;33.10
34145;HTU21D;69555;53.014;8.886;2023-06-26T06:51:50;36.53;32.92
34145;HTU21D;69555;53.014;8.886;2023-06-26T06:54:16;35.70;33.89
34145;HTU21D;69555;53.014;8.886;2023-06-26T06:56:42;35.54;33.67
34145;HTU21D;69555;53.014;8.886;2023-06-26T06:59:08;36.31;33.68
34145;HTU21D;69555;53.014;8.886;2023-06-26T07:01:33;35.10;35.13
34145;HTU21D;69555;53.014;8.886;2023-06-26T07:03:59;36.71;33.89
34145;HTU21D;69555;53.014;8.886;2023-06-26T07:06:24;37.50;32.14
34145;HTU21D;69555;53.014;8.886;2023-06-26T07:08:50;35.45;35.56
34145;HTU21D;69555;53.014;8.886;2023-06-26T07:11:15;35.90;34.38
34145;HTU21D;69555;53.014;8.886;2023-06-26T07:13:41;35.00;36.48
34145;HTU21D;69555;53.014;8.886;2023-06-26T07:16:06;35.18;37.18
34145;HTU21D;69555;53.014;8.886;2023-06-26T07:18:32;34.99;37.36
34145;HTU21D;69555;53.014;8.886;2023-06-26T07:20:57;37.02;33.24
34145;HTU21D;69555;53.014;8.886;2023-06-26T07:23:23;36.44;33.56
34145;HTU21D;69555;53.014;8.886;2023-06-26T07:25:48;34.81;36.96
34145;HTU21D;69555;53.014;8.886;2023-06-26T07:28:13;34.18;38.97
34145;HTU21D;69555;53.014;8.886;2023-06-26T07:30:39;34.96;37.35
34145;HTU21D;69555;53.014;8.886;2023-06-26T07:33:05;33.25;41.21
34145;HTU21D;69555;53.014;8.886;2023-06-26T07:35:30;32.47;41.45
34145;HTU21D;69555;53.014;8.886;2023-06-26T07:37:56;33.15;41.00
34145;HTU21D;69555;53.014;8.886;2023-06-26T07:40:21;35.86;36.07
34145;HTU21D;69555;53.014;8.886;2023-06-26T07:42:47;37.02;33.86
34145;HTU21D;69555;53.014;8.886;2023-06-26T07:45:12;37.65;32.94
34145;HTU21D;69555;53.014;8.886;2023-06-26T07:47:38;36.59;34.30
34145;HTU21D;69555;53.014;8.886;2023-06-26T07:50:04;36.66;34.12
34145;HTU21D;69555;53.014;8.886;2023-06-26T07:52:30;33.85;38.90
34145;HTU21D;69555;53.014;8.886;2023-06-26T07:54:56;32.77;41.18
34145;HTU21D;69555;53.014;8.886;2023-06-26T07:57:22;31.53;44.00
34145;HTU21D;69555;53.014;8.886;2023-06-26T07:59:47;30.72;45.96
34145;HTU21D;69555;53.014;8.886;2023-06-26T08:02:12;29.59;49.82
34145;HTU21D;69555;53.014;8.886;2023-06-26T08:04:38;29.49;50.29
34145;HTU21D;69555;53.014;8.886;2023-06-26T08:07:03;29.54;50.79
34145;HTU21D;69555;53.014;8.886;2023-06-26T08:09:30;29.65;50.21
34145;HTU21D;69555;53.014;8.886;2023-06-26T08:11:56;27.86;55.61
34145;HTU21D;69555;53.014;8.886;2023-06-26T08:14:21;28.77;53.07
34145;HTU21D;69555;53.014;8.886;2023-06-26T08:16:47;28.21;54.61
34145;HTU21D;69555;53.014;8.886;2023-06-26T08:19:13;28.50;54.07
34145;HTU21D;69555;53.014;8.886;2023-06-26T08:21:40;29.19;52.91
34145;HTU21D;69555;53.014;8.886;2023-06-26T08:24:06;29.39;52.56
34145;HTU21D;69555;53.014;8.886;2023-06-26T08:26:31;28.83;55.56
34145;HTU21D;69555;53.014;8.886;2023-06-26T08:28:57;28.44;55.74
34145;HTU21D;69555;53.014;8.886;2023-06-26T08:31:22;28.19;56.92
34145;HTU21D;69555;53.014;8.886;2023-06-26T08:33:48;27.09;59.19
34145;HTU21D;69555;53.014;8.886;2023-06-26T08:36:13;26.75;60.32
34145;HTU21D;69555;53.014;8.886;2023-06-26T08:38:39;26.45;61.04
34145;HTU21D;69555;53.014;8.886;2023-06-26T08:41:08;25.86;62.37
34145;HTU21D;69555;53.014;8.886;2023-06-26T08:43:35;25.56;63.59
34145;HTU21D;69555;53.014;8.886;2023-06-26T08:46:01;25.05;66.27
34145;HTU21D;69555;53.014;8.886;2023-06-26T08:48:29;24.80;67.47
34145;HTU21D;69555;53.014;8.886;2023-06-26T08:50:57;23.66;73.96
34145;HTU21D;69555;53.014;8.886;2023-06-26T08:53:51;22.80;79.08
34145;HTU21D;69555;53.014;8.886;2023-06-26T08:56:18;22.41;81.70
34145;HTU21D;69555;53.014;8.886;2023-06-26T08:58:46;22.76;80.62
34145;HTU21D;69555;53.014;8.886;2023-06-26T09:01:12;22.32;83.50
34145;HTU21D;69555;53.014;8.886;2023-06-26T09:03:38;22.37;82.99
34145;HTU21D;69555;53.014;8.886;2023-06-26T09:06:03;22.27;84.56
34145;HTU21D;69555;53.014;8.886;2023-06-26T09:08:28;22.38;84.78
34145;HTU21D;69555;53.014;8.886;2023-06-26T09:10:54;22.50;84.20
34145;HTU21D;69555;53.014;8.886;2023-06-26T09:13:19;22.61;83.37
34145;HTU21D;69555;53.014;8.886;2023-06-26T09:15:45;22.90;82.63
34145;HTU21D;69555;53.014;8.886;2023-06-26T09:18:11;23.05;82.68
34145;HTU21D;69555;53.014;8.886;2023-06-26T09:20:37;23.10;83.26
34145;HTU21D;69555;53.014;8.886;2023-06-26T09:23:03;23.65;81.53
34145;HTU21D;69555;53.014;8.886;2023-06-26T09:25:29;24.08;80.05
34145;HTU21D;69555;53.014;8.886;2023-06-26T09:27:55;24.27;79.69
34145;HTU21D;69555;53.014;8.886;2023-06-26T09:30:21;24.50;77.75
34145;HTU21D;69555;53.014;8.886;2023-06-26T09:32:47;24.79;76.85
34145;HTU21D;69555;53.014;8.886;2023-06-26T09:35:12;25.44;75.74
34145;HTU21D;69555;53.014;8.886;2023-06-26T09:37:38;25.47;75.41
34145;HTU21D;69555;53.014;8.886;2023-06-26T09:40:04;25.28;76.07
34145;HTU21D;69555;53.014;8.886;2023-06-26T09:42:30;26.09;71.98
34145;HTU21D;69555;53.014;8.886;2023-06-26T09:44:56;25.71;73.57
34145;HTU21D;69555;53.014;8.886;2023-06-26T09:47:22;25.96;72.12
34145;HTU21D;69555;53.014;8.886;2023-06-26T09:49:48;25.47;73.68
34145;HTU21D;69555;53.014;8.886;2023-06-26T09:52:15;25.06;73.73
34145;HTU21D;69555;53.014;8.886;2023-06-26T09:54:41;25.02;73.93
34145;HTU21D;69555;53.014;8.886;2023-06-26T09:57:09;25.20;73.48
34145;HTU21D;69555;53.014;8.886;2023-06-26T09:59:35;25.21;72.74
34145;HTU21D;69555;53.014;8.886;2023-06-26T10:02:01;25.62;71.11
34145;HTU21D;69555;53.014;8.886;2023-06-26T10:04:27;26.24;62.45
34145;HTU21D;69555;53.014;8.886;2023-06-26T10:06:56;25.63;66.36
34145;HTU21D;69555;53.014;8.886;2023-06-26T10:09:22;25.64;65.01
34145;HTU21D;69555;53.014;8.886;2023-06-26T10:12:01;25.68;64.74
34145;HTU21D;69555;53.014;8.886;2023-06-26T10:14:30;25.87;63.31
34145;HTU21D;69555;53.014;8.886;2023-06-26T10:16:58;25.97;63.02
34145;HTU21D;69555;53.014;8.886;2023-06-26T10:19:25;25.94;65.37
34145;HTU21D;69555;53.014;8.886;2023-06-26T10:21:55;26.05;63.27
34145;HTU21D;69555;53.014;8.886;2023-06-26T10:24:22;25.74;62.92
34145;HTU21D;69555;53.014;8.886;2023-06-26T10:26:51;25.89;63.66
34145;HTU21D;69555;53.014;8.886;2023-06-26T10:29:18;25.84;61.86
34145;HTU21D;69555;53.014;8.886;2023-06-26T10:31:50;25.64;62.70
34145;HTU21D;69555;53.014;8.886;2023-06-26T10:34:16;25.94;58.73
34145;HTU21D;69555;53.014;8.886;2023-06-26T10:36:42;25.88;60.31
34145;HTU21D;69555;53.014;8.886;2023-06-26T10:39:07;26.12;59.05
34145;HTU21D;69555;53.014;8.886;2023-06-26T10:41:37;26.04;58.31
34145;HTU21D;69555;53.014;8.886;2023-06-26T10:44:10;25.69;59.15
34145;HTU21D;69555;53.014;8.886;2023-06-26T10:46:52;25.05;56.79
34145;HTU21D;69555;53.014;8.886;2023-06-26T10:49:24;25.50;58.06
34145;HTU21D;69555;53.014;8.886;2023-06-26T10:51:50;25.61;55.42
34145;HTU21D;69555;53.014;8.886;2023-06-26T10:54:16;25.60;56.90
34145;HTU21D;69555;53.014;8.886;2023-06-26T10:56:54;25.58;56.71
34145;HTU21D;69555;53.014;8.886;2023-06-26T10:59:23;25.74;57.83
34145;HTU21D;69555;53.014;8.886;2023-06-26T11:01:57;25.79;55.94
34145;HTU21D;69555;53.014;8.886;2023-06-26T11:04:44;25.63;54.71
34145;HTU21D;69555;53.014;8.886;2023-06-26T11:07:21;25.45;56.26
34145;HTU21D;69555;53.014;8.886;2023-06-26T11:10:02;25.66;54.39
34145;HTU21D;69555;53.014;8.886;2023-06-26T11:12:44;25.60;51.29
34145;HTU21D;69555;53.014;8.886;2023-06-26T11:15:14;26.05;53.81
34145;HTU21D;69555;53.014;8.886;2023-06-26T11:17:41;26.28;54.08
34145;HTU21D;69555;53.014;8.886;2023-06-26T11:20:12;26.54;54.39
34145;HTU21D;69555;53.014;8.886;2023-06-26T11:22:39;26.51;55.04
34145;HTU21D;69555;53.014;8.886;2023-06-26T11:25:06;26.08;54.37
34145;HTU21D;69555;53.014;8.886;2023-06-26T11:30:05;25.77;54.84
34145;HTU21D;69555;53.014;8.886;2023-06-26T11:32:31;25.52;54.97
34145;HTU21D;69555;53.014;8.886;2023-06-26T11:34:58;25.46;54.07
34145;HTU21D;69555;53.014;8.886;2023-06-26T11:37:24;25.28;55.34
34145;HTU21D;69555;53.014;8.886;2023-06-26T11:39:50;25.23;55.54
34145;HTU21D;69555;53.014;8.886;2023-06-26T11:42:16;25.25;52.07
34145;HTU21D;69555;53.014;8.886;2023-06-26T11:44:43;25.74;53.60
34145;HTU21D;69555;53.014;8.886;2023-06-26T11:47:15;25.71;55.61
34145;HTU21D;69555;53.014;8.886;2023-06-26T11:49:48;25.37;54.40
34145;HTU21D;69555;53.014;8.886;2023-06-26T11:52:14;25.84;53.68
34145;HTU21D;69555;53.014;8.886;2023-06-26T11:54:40;25.35;53.18
34145;HTU21D;69555;53.014;8.886;2023-06-26T11:57:06;25.49;54.71
34145;HTU21D;69555;53.014;8.886;2023-06-26T11:59:34;25.72;52.48
34145;HTU21D;69555;53.014;8.886;2023-06-26T12:02:00;25.50;51.95
34145;HTU21D;69555;53.014;8.886;2023-06-26T12:04:26;25.68;53.75
34145;HTU21D;69555;53.014;8.886;2023-06-26T12:06:53;25.92;51.63
34145;HTU21D;69555;53.014;8.886;2023-06-26T12:09:22;26.02;51.17
34145;HTU21D;69555;53.014;8.886;2023-06-26T12:11:49;26.01;51.05
34145;HTU21D;69555;53.014;8.886;2023-06-26T12:14:17;25.76;50.24
34145;HTU21D;69555;53.014;8.886;2023-06-26T12:16:44;25.32;52.28
34145;HTU21D;69555;53.014;8.886;2023-06-26T12:19:10;25.35;53.14
34145;HTU21D;69555;53.014;8.886;2023-06-26T12:24:08;25.14;52.30
34145;HTU21D;69555;53.014;8.886;2023-06-26T12:26:34;25.15;52.15
34145;HTU21D;69555;53.014;8.886;2023-06-26T12:29:06;25.32;53.56
34145;HTU21D;69555;53.014;8.886;2023-06-26T12:31:32;25.52;51.14
34145;HTU21D;69555;53.014;8.886;2023-06-26T12:33:59;25.38;50.76
34145;HTU21D;69555;53.014;8.886;2023-06-26T12:36:25;25.30;51.57
34145;HTU21D;69555;53.014;8.886;2023-06-26T12:38:53;25.40;52.48
34145;HTU21D;69555;53.014;8.886;2023-06-26T12:41:18;25.56;51.99
34145;HTU21D;69555;53.014;8.886;2023-06-26T12:43:45;25.86;51.91
34145;HTU21D;69555;53.014;8.886;2023-06-26T12:46:11;26.16;51.21
34145;HTU21D;69555;53.014;8.886;2023-06-26T12:48:40;25.90;53.04
34145;HTU21D;69555;53.014;8.886;2023-06-26T12:51:10;25.74;51.96
34145;HTU21D;69555;53.014;8.886;2023-06-26T12:53:35;25.33;53.99
34145;HTU21D;69555;53.014;8.886;2023-06-26T12:56:01;25.20;52.44
34145;HTU21D;69555;53.014;8.886;2023-06-26T12:58:26;25.67;53.09
34145;HTU21D;69555;53.014;8.886;2023-06-26T13:00:51;25.78;51.16
34145;HTU21D;69555;53.014;8.886;2023-06-26T13:03:19;25.50;52.15
34145;HTU21D;69555;53.014;8.886;2023-06-26T13:05:46;25.42;51.85
34145;HTU21D;69555;53.014;8.886;2023-06-26T13:08:11;25.42;52.83
34145;HTU21D;69555;53.014;8.886;2023-06-26T13:10:37;25.65;51.17
34145;HTU21D;69555;53.014;8.886;2023-06-26T13:13:02;25.75;52.54
34145;HTU21D;69555;53.014;8.886;2023-06-26T13:15:27;25.39;53.13
34145;HTU21D;69555;53.014;8.886;2023-06-26T13:17:53;25.34;56.29
34145;HTU21D;69555;53.014;8.886;2023-06-26T13:20:18;25.69;54.55
34145;HTU21D;69555;53.014;8.886;2023-06-26T13:22:44;25.83;56.36
34145;HTU21D;69555;53.014;8.886;2023-06-26T13:25:11;25.68;53.79
34145;HTU21D;69555;53.014;8.886;2023-06-26T13:27:37;25.68;52.59
34145;HTU21D;69555;53.014;8.886;2023-06-26T13:30:02;25.65;53.43
34145;HTU21D;69555;53.014;8.886;2023-06-26T13:32:28;25.88;50.00
34145;HTU21D;69555;53.014;8.886;2023-06-26T13:34:53;25.99;49.23
34145;HTU21D;69555;53.014;8.886;2023-06-26T13:37:19;25.74;51.10
34145;HTU21D;69555;53.014;8.886;2023-06-26T13:39:44;25.53;51.18
34145;HTU21D;69555;53.014;8.886;2023-06-26T13:42:17;25.48;50.94
34145;HTU21D;69555;53.014;8.886;2023-06-26T13:44:43;25.47;52.73
34145;HTU21D;69555;53.014;8.886;2023-06-26T13:47:09;25.15;54.10
34145;HTU21D;69555;53.014;8.886;2023-06-26T13:49:34;25.05;54.40
34145;HTU21D;69555;53.014;8.886;2023-06-26T13:52:00;25.43;54.08
34145;HTU21D;69555;53.014;8.886;2023-06-26T13:54:26;26.10;53.01
34145;HTU21D;69555;53.014;8.886;2023-06-26T13:56:51;25.78;51.47
34145;HTU21D;69555;53.014;8.886;2023-06-26T13:59:23;24.92;52.40
34145;HTU21D;69555;53.014;8.886;2023-06-26T14:01:50;24.89;53.87
34145;HTU21D;69555;53.014;8.886;2023-06-26T14:04:15;25.32;52.97
34145;HTU21D;69555;53.014;8.886;2023-06-26T14:06:40;25.58;55.09
34145;HTU21D;69555;53.014;8.886;2023-06-26T14:09:07;25.51;52.57
34145;HTU21D;69555;53.014;8.886;2023-06-26T14:11:33;25.14;50.18
34145;HTU21D;69555;53.014;8.886;2023-06-26T14:13:59;24.98;52.79
34145;HTU21D;69555;53.014;8.886;2023-06-26T14:16:25;24.88;53.07
34145;HTU21D;69555;53.014;8.886;2023-06-26T14:18:50;24.34;54.47
34145;HTU21D;69555;53.014;8.886;2023-06-26T14:21:16;24.09;53.86
34145;HTU21D;69555;53.014;8.886;2023-06-26T14:23:42;24.28;54.05
34145;HTU21D;69555;53.014;8.886;2023-06-26T14:26:08;24.61;53.00
34145;HTU21D;69555;53.014;8.886;2023-06-26T14:28:33;24.73;52.56
34145;HTU21D;69555;53.014;8.886;2023-06-26T14:30:59;24.45;52.92
34145;HTU21D;69555;53.014;8.886;2023-06-26T14:33:24;24.38;52.39
34145;HTU21D;69555;53.014;8.886;2023-06-26T14:35:49;23.92;53.21
34145;HTU21D;69555;53.014;8.886;2023-06-26T14:38:15;23.83;54.70
34145;HTU21D;69555;53.014;8.886;2023-06-26T14:40:40;23.43;55.52
34145;HTU21D;69555;53.014;8.886;2023-06-26T14:43:05;23.21;55.54
34145;HTU21D;69555;53.014;8.886;2023-06-26T14:45:31;23.29;56.23
34145;HTU21D;69555;53.014;8.886;2023-06-26T14:47:56;23.27;55.59
34145;HTU21D;69555;53.014;8.886;2023-06-26T14:50:22;23.02;56.84
34145;HTU21D;69555;53.014;8.886;2023-06-26T14:52:47;22.80;57.22
34145;HTU21D;69555;53.014;8.886;2023-06-26T14:55:13;22.94;56.16
34145;HTU21D;69555;53.014;8.886;2023-06-26T14:57:40;23.09;55.44
34145;HTU21D;69555;53.014;8.886;2023-06-26T15:00:07;23.28;55.97
34145;HTU21D;69555;53.014;8.886;2023-06-26T15:02:33;23.43;55.06
34145;HTU21D;69555;53.014;8.886;2023-06-26T15:04:59;23.56;56.10
34145;HTU21D;69555;53.014;8.886;2023-06-26T15:07:24;23.86;55.33
34145;HTU21D;69555;53.014;8.886;2023-06-26T15:09:50;23.83;53.82
34145;HTU21D;69555;53.014;8.886;2023-06-26T15:12:15;23.44;56.10
34145;HTU21D;69555;53.014;8.886;2023-06-26T15:14:41;23.21;56.01
34145;HTU21D;69555;53.014;8.886;2023-06-26T15:17:06;23.54;55.10